Free Rein — WDG7940 — position and weather

sailwx.info

Track history (hours):
 
Tides and Currents Weather Stations Pressure Air Temp Water Temp Dewpoint Dewpoint Depression Visibility Wind Speed Wind Dir Waves Ship Positions

Free Rein

Owner: Crazy Love, LLC, Boulder, CO. More information available from US FCC via Universal Licensing System.

Last reported at 2017-Sep-19 20:27 UTC. Time now 2018-Feb-18 18:28 UTC.
Position N 38°58' W 076°29'.
Warning: this ship's position is months out of date.

Length 18 m.

Type: Sailing vessel. MMSI: 338148182.

Date/timePositionNaut miles runAvg speedWind from/ knotsBaromVisibWave heightAir tempDewpointWater temp
2017-Sep-19 20:27N 38°58' W 076°29'0 0.0
2017-Sep-19 20:00N 38°58' W 076°29'0 0.0
2017-Sep-19 19:30N 38°58' W 076°29'0 0.0
2017-Sep-19 19:00N 38°58' W 076°29'0 0.0
2017-Sep-19 18:30N 38°58' W 076°29'0 0.0
2017-Sep-19 18:00N 38°58' W 076°29'  
2017-Sep-14 06:43N 38°53' W 076°09'0 0.0
2017-Sep-14 06:07N 38°53' W 076°09'0 0.0
2017-Sep-14 05:55N 38°53' W 076°09'0 0.0
2017-Sep-14 05:28N 38°53' W 076°09'12 0.3
2017-Sep-12 14:40N 38°52' W 076°24'1 7.0
2017-Sep-12 14:29N 38°53' W 076°25'3 5.9
2017-Sep-12 14:00N 38°56' W 076°26'1 2.7
2017-Sep-12 13:29N 38°57' W 076°26'  
Track history (hours):
 
Tides and Currents Weather Stations Pressure Air Temp Water Temp Dewpoint Dewpoint Depression Visibility Wind Speed Wind Dir Waves Ship Positions

Free Rein

Owner: Crazy Love, LLC, Boulder, CO. More information available from US FCC via Universal Licensing System.

Last reported at 2017-Sep-19 20:27 UTC. Time now 2018-Feb-18 18:28 UTC.
Position N 38°58' W 076°29'.
Warning: this ship's position is months out of date.

Length 18 m.

Type: Sailing vessel. MMSI: 338148182.

Date/timePositionNaut miles runAvg speedWind from/ knotsBaromVisibWave heightAir tempDewpointWater temp
2017-Sep-19 20:27N 38°58' W 076°29'0 0.0
2017-Sep-19 20:00N 38°58' W 076°29'0 0.0
2017-Sep-19 19:30N 38°58' W 076°29'0 0.0
2017-Sep-19 19:00N 38°58' W 076°29'0 0.0
2017-Sep-19 18:30N 38°58' W 076°29'0 0.0
2017-Sep-19 18:00N 38°58' W 076°29'  
2017-Sep-14 06:43N 38°53' W 076°09'0 0.0
2017-Sep-14 06:07N 38°53' W 076°09'0 0.0
2017-Sep-14 05:55N 38°53' W 076°09'0 0.0
2017-Sep-14 05:28N 38°53' W 076°09'12 0.3
2017-Sep-12 14:40N 38°52' W 076°24'1 7.0
2017-Sep-12 14:29N 38°53' W 076°25'3 5.9
2017-Sep-12 14:00N 38°56' W 076°26'1 2.7
2017-Sep-12 13:29N 38°57' W 076°26'  

Dump ship's entire track history